Time;durP1;ratioP1;P1;durP2;ratioP2;P2;SDS_P1;SDS_P2;PMS_P1;PMS_P2;Temp;Humidity;BMP_temperature;BMP_pressure;BME280_temperature;BME280_humidity;BME280_pressure;Samples;Min_cycle;Max_cycle;Signal;HPM_P1;HPM_P2
2021/04/19 00:01:33;;;;;;;37.67;28.10;;;;;;;9.61;91.94;99653.22;4956685;29;20639;-70
2021/04/19 00:04:00;;;;;;;32.83;25.17;;;;;;;9.54;91.59;99643.72;4956861;28;20321;-69
2021/04/19 00:06:26;;;;;;;35.35;28.25;;;;;;;9.71;90.27;99650.91;4956689;28;20193;-71
2021/04/19 00:08:53;;;;;;;37.97;28.63;;;;;;;9.49;90.63;99643.09;4956775;28;20281;-71
2021/04/19 00:11:19;;;;;;;35.90;27.75;;;;;;;9.39;91.56;99640.91;4956557;29;20202;-72
2021/04/19 00:13:45;;;;;;;33.17;28.27;;;;;;;9.52;91.36;99638.44;4956273;28;20277;-71
2021/04/19 00:16:11;;;;;;;38.53;28.55;;;;;;;9.43;91.27;99641.63;4956737;28;20845;-70
2021/04/19 00:18:37;;;;;;;37.60;28.02;;;;;;;9.27;92.01;99646.94;4956572;28;20632;-69
2021/04/19 00:21:05;;;;;;;37.50;28.55;;;;;;;9.20;92.69;99637.44;4956717;29;20242;-70
2021/04/19 00:23:31;;;;;;;36.55;28.42;;;;;;;9.35;92.46;99635.78;4956354;29;20279;-71
2021/04/19 00:25:58;;;;;;;34.55;27.15;;;;;;;9.44;91.63;99632.59;4956327;28;20261;-70
2021/04/19 00:28:24;;;;;;;37.67;27.73;;;;;;;9.34;91.63;99623.31;4956173;28;20229;-71
2021/04/19 00:30:50;;;;;;;34.53;27.00;;;;;;;9.35;92.37;99623.19;4956552;28;20283;-71
2021/04/19 00:33:16;;;;;;;33.60;25.83;;;;;;;9.23;92.47;99636.44;4955864;29;20203;-71
2021/04/19 00:35:42;;;;;;;33.15;26.35;;;;;;;9.18;92.85;99634.84;4955779;28;20299;-71
2021/04/19 00:38:09;;;;;;;34.80;26.70;;;;;;;9.13;93.03;99631.50;4955993;29;20295;-71
2021/04/19 00:40:37;;;;;;;36.33;27.27;;;;;;;9.09;93.72;99634.44;4956200;29;20222;-69
2021/04/19 00:43:04;;;;;;;33.58;27.20;;;;;;;9.19;93.61;99628.50;4955990;29;20229;-71
2021/04/19 00:45:30;;;;;;;38.60;28.40;;;;;;;9.23;92.85;99621.16;4956123;29;20562;-70
2021/04/19 00:47:57;;;;;;;37.00;27.50;;;;;;;9.34;91.96;99621.47;4955925;29;20329;-70
2021/04/19 00:50:26;;;;;;;35.65;26.48;;;;;;;9.28;91.78;99624.47;4955986;29;20552;-70
2021/04/19 00:52:52;;;;;;;36.60;28.33;;;;;;;9.19;91.93;99630.34;4955875;28;20283;-70
2021/04/19 00:55:20;;;;;;;35.95;27.55;;;;;;;9.23;91.19;99612.25;4955783;29;20210;-71
2021/04/19 00:57:46;;;;;;;37.83;26.70;;;;;;;9.08;92.19;99616.59;4955532;28;20676;-71
2021/04/19 01:00:16;;;;;;;37.13;27.85;;;;;;;9.09;91.96;99626.38;4955969;29;20202;-70
2021/04/19 01:02:43;;;;;;;37.65;28.00;;;;;;;9.03;92.27;99610.59;4955963;29;20284;-71
2021/04/19 01:05:11;;;;;;;41.25;29.80;;;;;;;8.74;93.89;99612.94;4955667;28;20699;-70
2021/04/19 01:07:38;;;;;;;35.85;27.77;;;;;;;8.89;93.94;99604.09;4955965;28;20224;-71
2021/04/19 01:10:05;;;;;;;33.60;26.88;;;;;;;8.90;94.06;99602.28;4955638;29;20280;-71
2021/04/19 01:12:32;;;;;;;36.88;28.10;;;;;;;8.92;94.33;99606.63;4955616;29;20239;-70
2021/04/19 01:14:58;;;;;;;39.88;30.15;;;;;;;9.00;93.92;99608.03;4955524;29;20210;-70
2021/04/19 01:17:24;;;;;;;34.78;27.20;;;;;;;8.85;94.82;99605.22;4955751;28;20283;-70
2021/04/19 01:19:51;;;;;;;33.13;27.30;;;;;;;8.84;94.71;99602.59;4955115;28;20193;-71
2021/04/19 01:22:18;;;;;;;32.08;25.88;;;;;;;9.02;94.35;99604.31;4948039;29;20219;-69
2021/04/19 01:24:44;;;;;;;34.92;27.65;;;;;;;9.11;93.76;99601.19;4955509;29;20539;-70
2021/04/19 01:27:10;;;;;;;34.90;27.52;;;;;;;9.24;93.37;99592.47;4954730;28;20276;-69
2021/04/19 01:29:37;;;;;;;39.85;28.55;;;;;;;9.30;92.16;99595.72;4955019;28;20221;-69
2021/04/19 01:32:03;;;;;;;34.85;27.13;;;;;;;9.27;92.52;99601.25;4955349;29;20281;-71
2021/04/19 01:34:29;;;;;;;38.22;27.13;;;;;;;9.22;92.23;99595.22;4955454;29;20717;-70
2021/04/19 01:36:56;;;;;;;36.75;27.58;;;;;;;9.17;92.35;99603.53;4955007;28;20228;-70
2021/04/19 01:39:23;;;;;;;35.78;26.80;;;;;;;9.16;92.81;99600.94;4947360;29;20202;-71
2021/04/19 01:41:49;;;;;;;37.58;27.00;;;;;;;9.04;93.38;99601.56;4955114;28;20190;-71
2021/04/19 01:44:15;;;;;;;37.00;26.95;;;;;;;8.85;94.24;99599.84;4955030;29;20255;-71
2021/04/19 01:46:41;;;;;;;35.08;27.65;;;;;;;8.88;94.59;99598.81;4955005;29;20193;-70
2021/04/19 01:49:15;;;;;;;35.50;27.05;;;;;;;8.89;95.10;99598.75;4954556;29;20186;-71
2021/04/19 01:51:42;;;;;;;36.42;27.73;;;;;;;8.94;94.45;99594.00;4955121;28;20664;-70
2021/04/19 01:54:08;;;;;;;35.78;27.20;;;;;;;9.02;94.01;99601.63;4955167;28;20284;-71
2021/04/19 01:56:36;;;;;;;38.47;28.30;;;;;;;9.16;92.42;99598.25;4954890;29;20288;-69
2021/04/19 01:59:04;;;;;;;37.08;28.40;;;;;;;9.24;91.54;99587.97;4955042;29;20242;-71
2021/04/19 02:01:31;;;;;;;33.53;27.15;;;;;;;9.37;90.06;99596.25;4954889;28;20696;-71
2021/04/19 02:04:05;;;;;;;35.85;26.33;;;;;;;9.35;89.44;99598.16;4954428;29;20265;-71
2021/04/19 02:06:37;;;;;;;33.60;26.15;;;;;;;9.26;90.02;99590.59;4954845;29;20606;-70
2021/04/19 02:09:14;;;;;;;31.50;25.52;;;;;;;9.13;91.13;99588.53;4954910;29;20618;-70
2021/04/19 02:11:52;;;;;;;35.75;27.33;;;;;;;9.07;92.18;99585.31;4948206;29;20679;-71
2021/04/19 02:14:36;;;;;;;33.97;25.33;;;;;;;9.09;91.15;99588.75;4954256;29;20193;-70
2021/04/19 02:17:10;;;;;;;34.55;26.30;;;;;;;8.89;91.39;99577.25;4954340;29;20201;-70
2021/04/19 02:19:41;;;;;;;37.22;26.38;;;;;;;8.80;92.79;99583.09;4954604;29;20221;-72
2021/04/19 02:22:12;;;;;;;33.15;26.23;;;;;;;8.68;94.02;99579.22;4954154;29;20224;-71
2021/04/19 02:24:44;;;;;;;35.88;26.77;;;;;;;8.51;95.65;99582.75;4947376;29;20264;-70
2021/04/19 02:27:14;;;;;;;39.30;28.30;;;;;;;8.43;96.47;99582.25;4954689;29;20680;-71
2021/04/19 02:29:42;;;;;;;37.80;28.80;;;;;;;8.31;97.89;99589.06;4946896;29;20287;-70
2021/04/19 02:32:18;;;;;;;35.80;27.50;;;;;;;8.14;98.81;99592.56;4954215;29;20196;-71
2021/04/19 02:34:48;;;;;;;39.28;29.13;;;;;;;8.08;99.79;99590.19;4947293;29;20219;-70
2021/04/19 02:37:16;;;;;;;39.63;31.23;;;;;;;7.88;100.00;99588.44;4954202;28;20189;-70
2021/04/19 02:39:46;;;;;;;36.88;29.27;;;;;;;7.91;100.00;99588.31;4946968;29;20193;-70
2021/04/19 02:42:15;;;;;;;40.97;30.60;;;;;;;7.90;100.00;99589.25;4954298;29;20220;-70
2021/04/19 02:44:45;;;;;;;37.10;28.00;;;;;;;7.95;100.00;99591.72;4946370;29;20277;-70
2021/04/19 02:47:13;;;;;;;43.08;30.98;;;;;;;7.88;100.00;99593.81;4954523;29;20304;-69
2021/04/19 02:49:40;;;;;;;40.13;29.98;;;;;;;7.85;100.00;99593.09;4954097;29;20272;-69
2021/04/19 02:52:07;;;;;;;37.90;28.38;;;;;;;7.89;100.00;99592.00;4953836;29;20231;-71
2021/04/19 02:54:35;;;;;;;40.92;29.85;;;;;;;8.00;100.00;99591.47;4953955;28;20247;-70
2021/04/19 02:57:02;;;;;;;38.97;29.73;;;;;;;7.96;100.00;99590.78;4953824;29;20259;-69
2021/04/19 02:59:30;;;;;;;42.72;29.83;;;;;;;8.02;100.00;99593.16;4954014;29;20546;-70
2021/04/19 03:02:00;;;;;;;35.92;28.25;;;;;;;7.91;100.00;99587.44;4954088;29;20283;-71
2021/04/19 03:04:33;;;;;;;35.92;27.67;;;;;;;8.07;100.00;99590.25;4953345;29;20236;-70
2021/04/19 03:07:01;;;;;;;37.42;28.35;;;;;;;8.03;99.37;99592.22;4954181;29;20660;-69
2021/04/19 03:09:28;;;;;;;39.97;29.13;;;;;;;7.78;100.00;99592.53;4954145;29;20197;-70
2021/04/19 03:11:58;;;;;;;36.95;27.00;;;;;;;7.70;100.00;99592.84;4953684;29;20193;-69
2021/04/19 03:14:28;;;;;;;42.83;30.08;;;;;;;7.84;100.00;99594.88;4953535;29;20210;-71
2021/04/19 03:17:01;;;;;;;41.45;29.80;;;;;;;7.80;100.00;99581.69;4947216;29;20359;-70
2021/04/19 03:19:29;;;;;;;35.88;28.63;;;;;;;7.89;100.00;99589.31;4953874;28;20607;-71
2021/04/19 03:21:56;;;;;;;37.17;27.67;;;;;;;7.82;100.00;99587.88;4953957;29;20207;-73
2021/04/19 03:24:23;;;;;;;40.17;27.75;;;;;;;7.74;100.00;99582.88;4953012;28;20248;-72
2021/04/19 03:26:51;;;;;;;34.38;30.02;;;;;;;7.67;100.00;99586.78;4952789;29;20193;-73
2021/04/19 03:29:19;;;;;;;40.40;28.38;;;;;;;7.70;100.00;99576.78;4953060;29;20197;-72
2021/04/19 03:31:48;;;;;;;40.10;29.02;;;;;;;7.60;100.00;99579.94;4952729;29;20203;-72
2021/04/19 03:34:20;;;;;;;39.53;29.98;;;;;;;7.54;100.00;99565.03;4952977;28;20189;-72
2021/04/19 03:36:50;;;;;;;39.72;28.27;;;;;;;7.58;100.00;99563.97;4953300;28;20188;-72
2021/04/19 03:39:19;;;;;;;39.15;28.15;;;;;;;7.68;100.00;99573.28;4953257;29;20224;-72
2021/04/19 03:41:48;;;;;;;41.63;29.33;;;;;;;7.69;100.00;99567.00;4952687;29;20236;-72
2021/04/19 03:44:18;;;;;;;35.80;27.88;;;;;;;7.73;100.00;99560.56;4952966;28;20197;-71
2021/04/19 03:46:44;;;;;;;37.05;27.52;;;;;;;7.85;100.00;99559.13;4952649;29;20223;-72
2021/04/19 03:49:12;;;;;;;36.08;27.10;;;;;;;7.76;99.95;99559.56;4953772;28;20657;-72
2021/04/19 03:51:43;;;;;;;40.30;29.20;;;;;;;7.56;100.00;99560.47;4956168;28;20228;-72
2021/04/19 03:54:10;;;;;;;37.85;27.92;;;;;;;7.51;100.00;99557.16;4949807;29;20529;-72
2021/04/19 03:56:39;;;;;;;39.78;29.10;;;;;;;7.39;100.00;99561.25;4956030;29;20303;-72
2021/04/19 03:59:10;;;;;;;38.05;28.35;;;;;;;7.57;100.00;99553.31;4948879;29;20193;-74
2021/04/19 04:01:38;;;;;;;41.78;29.40;;;;;;;7.79;100.00;99553.16;4956643;28;20204;-73
2021/04/19 04:04:06;;;;;;;40.50;27.60;;;;;;;7.89;100.00;99571.44;4956076;28;20224;-72
2021/04/19 04:06:32;;;;;;;37.35;29.00;;;;;;;7.75;100.00;99559.63;4956370;28;20280;-73
2021/04/19 04:09:01;;;;;;;44.55;30.95;;;;;;;7.77;100.00;99561.28;4956146;29;20636;-74
2021/04/19 04:11:27;;;;;;;43.63;30.40;;;;;;;7.76;100.00;99570.28;4956180;29;20193;-72
2021/04/19 04:13:54;;;;;;;38.47;27.27;;;;;;;7.85;100.00;99559.13;4956133;29;20221;-73
2021/04/19 04:16:20;;;;;;;40.72;29.13;;;;;;;7.85;100.00;99555.56;4956348;28;20258;-72
2021/04/19 04:18:46;;;;;;;41.13;28.77;;;;;;;7.94;99.85;99557.81;4956203;28;20272;-72
2021/04/19 04:21:12;;;;;;;38.33;29.00;;;;;;;8.03;99.18;99561.88;4956044;29;20205;-73
2021/04/19 04:23:39;;;;;;;39.40;28.42;;;;;;;7.99;99.01;99562.94;4956189;29;20707;-72
2021/04/19 04:26:06;;;;;;;38.55;28.50;;;;;;;8.01;98.22;99566.44;4955875;29;20704;-73
2021/04/19 04:28:32;;;;;;;36.97;27.13;;;;;;;8.07;98.14;99560.75;4955880;29;20289;-72
2021/04/19 04:30:59;;;;;;;35.53;27.15;;;;;;;8.24;97.65;99554.56;4955431;29;20243;-73
2021/04/19 04:33:25;;;;;;;35.28;26.63;;;;;;;8.35;96.55;99557.59;4955881;29;20533;-73
2021/04/19 04:35:51;;;;;;;37.63;28.15;;;;;;;8.36;95.94;99551.28;4955251;28;20313;-72
2021/04/19 04:38:17;;;;;;;35.03;27.63;;;;;;;8.28;96.31;99548.97;4955873;29;20591;-72
2021/04/19 04:40:43;;;;;;;36.25;28.08;;;;;;;8.34;96.34;99554.06;4955519;29;20201;-73
2021/04/19 04:43:14;;;;;;;36.80;27.88;;;;;;;8.52;94.88;99557.66;4955484;28;20304;-73
2021/04/19 04:45:41;;;;;;;38.55;28.88;;;;;;;8.41;95.90;99560.03;4955825;28;20243;-72
2021/04/19 04:48:12;;;;;;;35.25;27.35;;;;;;;8.56;94.96;99556.53;4955187;28;20239;-72
2021/04/19 04:50:43;;;;;;;38.38;29.33;;;;;;;8.43;94.83;99547.38;4955659;29;20224;-73
2021/04/19 04:53:15;;;;;;;35.30;28.15;;;;;;;8.35;95.45;99554.91;4955164;29;20196;-71
2021/04/19 04:55:43;;;;;;;35.53;27.38;;;;;;;8.48;95.17;99550.72;4955538;29;20267;-73
2021/04/19 04:58:10;;;;;;;41.08;29.88;;;;;;;8.57;94.97;99560.13;4954997;28;20635;-72
2021/04/19 05:00:38;;;;;;;43.70;30.80;;;;;;;8.51;94.51;99563.09;4955162;28;20593;-74
2021/04/19 05:03:07;;;;;;;44.75;30.30;;;;;;;8.34;96.07;99561.22;4955198;29;20232;-72
2021/04/19 05:05:33;;;;;;;39.63;28.55;;;;;;;8.17;96.76;99569.25;4955463;29;20215;-73
2021/04/19 05:08:00;;;;;;;41.67;29.30;;;;;;;8.32;97.38;99566.66;4954409;28;20201;-73
2021/04/19 05:10:27;;;;;;;39.70;29.83;;;;;;;8.60;95.89;99557.25;4955002;29;20292;-74
2021/04/19 05:12:53;;;;;;;44.97;30.05;;;;;;;8.72;94.52;99562.00;4955449;29;20588;-72
2021/04/19 05:15:19;;;;;;;40.72;31.35;;;;;;;8.66;93.93;99556.06;4955000;29;20287;-73
2021/04/19 05:17:47;;;;;;;40.40;31.05;;;;;;;8.66;93.39;99556.97;4955187;28;20207;-72
2021/04/19 05:20:15;;;;;;;41.30;30.02;;;;;;;8.88;93.24;99553.16;4954523;28;20208;-74
2021/04/19 05:22:43;;;;;;;42.00;30.67;;;;;;;8.91;93.20;99551.19;4955419;29;20192;-74
2021/04/19 05:25:11;;;;;;;36.42;28.65;;;;;;;8.91;92.40;99544.94;4955279;29;20273;-72
2021/04/19 05:27:38;;;;;;;42.28;31.05;;;;;;;8.94;92.62;99556.41;4955215;28;20554;-73
2021/04/19 05:30:05;;;;;;;39.88;30.77;;;;;;;8.94;92.52;99559.09;4954958;29;20185;-73
2021/04/19 05:32:32;;;;;;;40.92;30.42;;;;;;;9.09;91.55;99561.91;4954641;29;20218;-73
2021/04/19 05:35:00;;;;;;;43.25;31.60;;;;;;;9.12;91.93;99567.13;4955143;29;20667;-72
2021/04/19 05:37:27;;;;;;;40.65;30.52;;;;;;;9.03;92.57;99562.25;4954963;28;20620;-73
2021/04/19 05:39:53;;;;;;;41.55;33.38;;;;;;;9.26;91.57;99561.03;4955015;28;20202;-74
2021/04/19 05:42:21;;;;;;;40.65;31.13;;;;;;;9.22;91.14;99564.81;4954569;28;20288;-74
2021/04/19 05:44:47;;;;;;;44.90;33.08;;;;;;;9.10;92.57;99572.56;4954448;29;20576;-74
2021/04/19 05:47:14;;;;;;;42.88;32.00;;;;;;;8.96;93.57;99573.31;4953587;29;20224;-72
2021/04/19 05:49:40;;;;;;;54.20;35.53;;;;;;;8.70;94.39;99576.44;4954625;29;20189;-73
2021/04/19 05:52:10;;;;;;;53.15;35.85;;;;;;;8.82;95.29;99570.47;4953967;29;20312;-72
2021/04/19 05:54:40;;;;;;;50.30;35.55;;;;;;;9.01;94.80;99578.44;4954558;28;20272;-73
2021/04/19 05:57:11;;;;;;;45.92;34.30;;;;;;;8.96;94.13;99581.34;4954938;28;20335;-72
2021/04/19 05:59:45;;;;;;;51.38;36.25;;;;;;;8.96;94.72;99584.03;4954673;28;20197;-74
2021/04/19 06:02:15;;;;;;;59.03;35.47;;;;;;;9.06;93.52;99584.41;4954743;28;20200;-72
2021/04/19 06:04:50;;;;;;;50.67;34.45;;;;;;;9.18;93.54;99581.13;4953910;28;20237;-73
2021/04/19 06:07:23;;;;;;;46.85;33.67;;;;;;;9.22;93.11;99586.31;4954062;28;20284;-73
2021/04/19 06:09:54;;;;;;;48.10;32.42;;;;;;;9.21;93.32;99588.13;4935533;29;20285;-73
2021/04/19 06:12:25;;;;;;;44.97;34.38;;;;;;;9.17;92.61;99589.25;4952337;28;20225;-75
2021/04/19 06:14:53;;;;;;;42.65;32.72;;;;;;;9.05;92.80;99585.38;4953894;29;20232;-73
2021/04/19 06:17:21;;;;;;;51.28;33.85;;;;;;;9.34;93.36;99591.06;4953903;29;20178;-72
2021/04/19 06:19:49;;;;;;;43.22;30.10;;;;;;;9.66;90.17;99589.31;4953562;29;20289;-73
2021/04/19 06:22:16;;;;;;;45.72;30.88;;;;;;;9.77;89.59;99592.28;4952954;29;20193;-73
2021/04/19 06:24:47;;;;;;;45.15;32.35;;;;;;;9.60;89.81;99603.09;4953546;29;20195;-73
2021/04/19 06:27:18;;;;;;;45.15;33.97;;;;;;;9.56;90.00;99596.97;4953397;28;20208;-73
2021/04/19 06:29:45;;;;;;;43.35;31.85;;;;;;;9.90;88.95;99596.97;4953736;28;20199;-73
2021/04/19 06:32:12;;;;;;;41.28;30.70;;;;;;;9.69;88.11;99599.88;4953535;29;20190;-73
2021/04/19 06:34:38;;;;;;;38.42;28.05;;;;;;;9.78;88.30;99601.22;4954197;29;20622;-73
2021/04/19 06:37:06;;;;;;;40.10;29.02;;;;;;;9.90;88.35;99605.03;4953926;28;20217;-73
2021/04/19 06:39:33;;;;;;;38.80;28.15;;;;;;;10.01;87.37;99599.94;4953976;29;20600;-73
2021/04/19 06:42:02;;;;;;;38.58;27.40;;;;;;;10.12;84.63;99596.66;4953316;29;20198;-74
2021/04/19 06:44:29;;;;;;;40.63;26.35;;;;;;;10.17;83.33;99597.25;4954110;29;20231;-73
2021/04/19 06:46:57;;;;;;;43.75;30.48;;;;;;;10.10;84.44;99596.72;4953542;29;20295;-72
2021/04/19 06:49:24;;;;;;;39.85;31.15;;;;;;;10.08;86.46;99601.31;4953682;29;20589;-74
2021/04/19 06:51:52;;;;;;;38.00;30.52;;;;;;;9.84;87.52;99605.41;4953741;29;20797;-74
2021/04/19 06:54:18;;;;;;;42.47;32.45;;;;;;;9.77;89.00;99604.88;4953186;28;20257;-73
2021/04/19 06:56:46;;;;;;;42.80;32.70;;;;;;;9.76;89.77;99597.72;4953378;28;20215;-73
2021/04/19 06:59:15;;;;;;;42.15;32.20;;;;;;;9.84;90.17;99602.72;4953495;29;20300;-74
2021/04/19 07:01:42;;;;;;;38.97;31.33;;;;;;;9.87;89.59;99595.31;4953594;28;20269;-73
2021/04/19 07:04:13;;;;;;;41.45;30.42;;;;;;;9.92;88.90;99608.50;4953493;28;20654;-74
2021/04/19 07:06:40;;;;;;;49.35;33.38;;;;;;;9.84;90.49;99598.19;4953628;28;20191;-72
2021/04/19 07:09:17;;;;;;;45.63;32.63;;;;;;;9.45;91.18;99601.22;4953647;28;20536;-73
2021/04/19 07:11:45;;;;;;;39.78;30.42;;;;;;;9.84;90.58;99597.34;4952957;28;20278;-74
2021/04/19 07:14:16;;;;;;;38.97;31.30;;;;;;;10.19;89.42;99598.03;4953709;29;20298;-72
2021/04/19 07:16:42;;;;;;;41.97;30.20;;;;;;;10.19;88.56;99592.66;4953333;29;20237;-73
2021/04/19 07:19:09;;;;;;;41.92;32.15;;;;;;;10.05;88.82;99595.25;4953793;29;20619;-74
2021/04/19 07:21:36;;;;;;;43.33;30.08;;;;;;;10.28;88.42;99597.50;4953170;29;20294;-74
2021/04/19 07:24:03;;;;;;;45.72;31.40;;;;;;;10.47;87.66;99601.88;4953722;28;20208;-73
2021/04/19 07:26:30;;;;;;;40.22;29.70;;;;;;;10.77;86.12;99596.53;4957334;29;20631;-73
2021/04/19 07:28:56;;;;;;;38.20;29.10;;;;;;;10.74;85.30;99594.91;4957356;29;20223;-73
2021/04/19 07:31:23;;;;;;;37.00;28.85;;;;;;;10.63;84.38;99587.44;4957511;28;20211;-74
2021/04/19 07:33:50;;;;;;;36.20;28.13;;;;;;;10.73;83.13;99585.06;4956615;29;20228;-73
2021/04/19 07:36:28;;;;;;;39.03;28.40;;;;;;;10.72;83.21;99588.72;4957235;29;20228;-74
2021/04/19 07:38:55;;;;;;;42.28;28.88;;;;;;;11.05;82.98;99582.28;4957424;28;20232;-74
2021/04/19 07:41:22;;;;;;;36.72;27.80;;;;;;;11.51;81.88;99582.16;4957287;29;20619;-75
2021/04/19 07:43:49;;;;;;;40.55;27.50;;;;;;;11.64;80.28;99582.25;4956123;28;20283;-75
2021/04/19 07:46:17;;;;;;;39.05;26.98;;;;;;;11.60;79.52;99581.59;4956750;29;20206;-76
2021/04/19 07:48:46;;;;;;;35.80;25.38;;;;;;;11.51;78.05;99581.28;4956563;29;20215;-75
2021/04/19 07:51:27;;;;;;;33.80;25.17;;;;;;;11.83;76.63;99576.59;4956367;29;20625;-74
2021/04/19 07:54:16;;;;;;;36.03;28.45;;;;;;;12.05;76.09;99578.78;4956474;29;20193;-74
2021/04/19 07:56:44;;;;;;;29.45;23.05;;;;;;;12.40;74.48;99572.94;4956049;29;20220;-74
2021/04/19 07:59:21;;;;;;;29.42;22.00;;;;;;;12.76;71.88;99574.13;4956603;29;20235;-74
2021/04/19 08:01:56;;;;;;;29.27;22.90;;;;;;;12.81;71.21;99572.84;4956319;29;20196;-75
2021/04/19 08:04:23;;;;;;;29.55;23.00;;;;;;;13.10;70.20;99578.97;4956084;29;20236;-74
2021/04/19 08:06:49;;;;;;;28.00;23.00;;;;;;;13.09;70.76;99577.25;4956374;28;20245;-75
2021/04/19 08:09:16;;;;;;;29.02;21.38;;;;;;;12.82;69.70;99571.00;4956207;29;20196;-74
2021/04/19 08:11:43;;;;;;;30.10;22.00;;;;;;;12.63;70.40;99574.94;4956699;28;20262;-74
2021/04/19 08:14:09;;;;;;;30.38;24.48;;;;;;;13.19;70.23;99576.59;4956353;28;20213;-75
2021/04/19 08:16:36;;;;;;;33.05;24.10;;;;;;;13.29;69.00;99570.47;4956180;28;20226;-73
2021/04/19 08:19:04;;;;;;;31.08;23.17;;;;;;;13.34;68.38;99573.72;4956054;29;20191;-74
2021/04/19 08:21:33;;;;;;;28.40;22.45;;;;;;;13.52;67.67;99579.69;4956076;29;20296;-74
2021/04/19 08:24:10;;;;;;;30.73;22.65;;;;;;;13.31;68.55;99573.06;4956435;29;20251;-73
2021/04/19 08:26:48;;;;;;;28.85;22.75;;;;;;;13.27;69.29;99571.50;4956503;28;20185;-74
2021/04/19 08:29:36;;;;;;;28.35;22.20;;;;;;;13.58;67.71;99572.09;4956413;29;20216;-73
2021/04/19 08:32:03;;;;;;;30.90;24.60;;;;;;;13.51;68.07;99577.09;4955971;29;20236;-74
2021/04/19 08:34:30;;;;;;;31.88;23.27;;;;;;;13.57;68.74;99571.25;4955968;28;20208;-74
2021/04/19 08:36:59;;;;;;;29.35;23.60;;;;;;;13.93;67.81;99569.59;4955976;28;20292;-74
2021/04/19 08:39:26;;;;;;;28.63;23.23;;;;;;;14.10;67.00;99573.75;4955738;29;20208;-73
2021/04/19 08:41:53;;;;;;;29.85;23.50;;;;;;;14.29;66.41;99576.84;4956231;29;20573;-75
2021/04/19 08:44:19;;;;;;;29.67;23.63;;;;;;;13.78;67.23;99568.84;4955659;29;20291;-73
2021/04/19 08:46:46;;;;;;;31.73;25.70;;;;;;;13.74;68.30;99570.03;4955926;29;20268;-74
2021/04/19 08:49:13;;;;;;;29.45;22.60;;;;;;;14.51;65.83;99577.97;4955833;29;20226;-74
2021/04/19 08:51:40;;;;;;;31.08;23.70;;;;;;;14.65;64.90;99577.81;4955724;29;20213;-74
2021/04/19 08:54:07;;;;;;;29.20;24.17;;;;;;;14.89;64.71;99576.94;4955750;29;20210;-75
2021/04/19 08:56:34;;;;;;;28.75;22.40;;;;;;;15.12;62.82;99578.75;4955665;29;20253;-73
2021/04/19 08:59:02;;;;;;;42.72;32.00;;;;;;;15.07;63.80;99583.66;4955358;28;20253;-73
2021/04/19 09:01:29;;;;;;;28.55;23.50;;;;;;;14.22;65.42;99580.13;4955795;28;20252;-74
2021/04/19 09:04:03;;;;;;;30.88;23.17;;;;;;;14.11;66.24;99580.88;4955464;29;20242;-74
2021/04/19 09:06:40;;;;;;;25.88;22.83;;;;;;;14.63;66.02;99582.50;4955355;29;20215;-74
2021/04/19 09:09:08;;;;;;;28.50;22.95;;;;;;;14.84;65.08;99580.00;4955593;28;20566;-73
2021/04/19 09:11:34;;;;;;;27.90;22.70;;;;;;;14.75;64.52;99570.72;4955595;29;20301;-74
2021/04/19 09:14:05;;;;;;;27.23;23.38;;;;;;;14.27;67.10;99576.09;4955344;29;20308;-74
2021/04/19 09:16:36;;;;;;;29.88;23.23;;;;;;;14.10;67.99;99579.16;4954960;29;20222;-74
2021/04/19 09:19:04;;;;;;;30.17;24.98;;;;;;;14.51;67.00;99578.81;4954954;28;20643;-74
2021/04/19 09:21:39;;;;;;;26.13;22.20;;;;;;;14.52;65.58;99572.44;4955348;29;20224;-74
2021/04/19 09:24:07;;;;;;;26.27;22.27;;;;;;;14.80;63.64;99579.34;4954854;29;20205;-74
2021/04/19 09:26:48;;;;;;;25.50;21.65;;;;;;;14.37;64.87;99587.97;4955283;28;20242;-74
2021/04/19 09:29:45;;;;;;;29.55;23.20;;;;;;;14.00;66.13;99576.28;4955070;29;20206;-74
2021/04/19 09:32:26;;;;;;;26.92;22.92;;;;;;;14.35;65.13;99575.53;4949334;28;20208;-74
2021/04/19 09:34:54;;;;;;;33.08;24.83;;;;;;;14.47;64.68;99571.91;4955131;28;20234;-75
2021/04/19 09:37:22;;;;;;;26.35;22.33;;;;;;;14.73;64.00;99574.53;4955015;28;20231;-74
2021/04/19 09:39:51;;;;;;;28.85;23.13;;;;;;;14.78;62.72;99572.34;4954915;28;20963;-74
2021/04/19 09:42:39;;;;;;;26.13;22.85;;;;;;;14.53;63.61;99579.56;4954519;29;20333;-74
2021/04/19 09:45:06;;;;;;;27.35;22.85;;;;;;;14.66;62.47;99582.25;4954713;29;20315;-73
2021/04/19 09:47:47;;;;;;;31.00;24.60;;;;;;;14.43;63.03;99577.69;4953974;28;20589;-74
2021/04/19 09:50:14;;;;;;;27.35;22.42;;;;;;;14.71;60.92;99585.47;4955092;29;20690;-73
2021/04/19 09:52:41;;;;;;;27.52;22.58;;;;;;;15.07;60.19;99583.66;4954375;29;20285;-74
2021/04/19 09:55:08;;;;;;;30.05;25.05;;;;;;;15.41;59.06;99581.91;4954410;29;20689;-74
2021/04/19 09:57:38;;;;;;;26.73;22.55;;;;;;;15.75;57.60;99586.53;4954761;29;20235;-74
2021/04/19 10:00:06;;;;;;;25.23;21.92;;;;;;;15.50;57.88;99584.88;4954117;29;20257;-76
2021/04/19 10:02:34;;;;;;;32.58;24.35;;;;;;;15.43;58.92;99579.94;4954482;28;20211;-74
2021/04/19 10:05:03;;;;;;;34.83;25.90;;;;;;;15.34;58.34;99572.50;4954556;29;20216;-74
2021/04/19 10:07:32;;;;;;;32.22;23.65;;;;;;;15.49;57.18;99580.41;4954574;29;20273;-72
2021/04/19 10:10:02;;;;;;;27.45;22.88;;;;;;;15.49;58.21;99575.88;4954098;29;20210;-74
2021/04/19 10:12:31;;;;;;;31.48;25.27;;;;;;;15.64;58.68;99574.63;4954397;28;20206;-73
2021/04/19 10:14:59;;;;;;;27.63;23.85;;;;;;;16.07;55.71;99572.22;4954587;29;20208;-73
2021/04/19 10:17:29;;;;;;;30.20;24.83;;;;;;;16.62;54.20;99573.97;4954036;29;20577;-74
2021/04/19 10:19:55;;;;;;;32.97;25.42;;;;;;;17.04;53.43;99562.34;4954236;28;20636;-73
2021/04/19 10:22:21;;;;;;;25.45;22.55;;;;;;;17.51;51.13;99560.06;4953930;28;20200;-74
2021/04/19 10:24:52;;;;;;;31.77;27.30;;;;;;;17.65;51.17;99565.16;4954035;29;20555;-73
2021/04/19 10:27:26;;;;;;;31.15;23.48;;;;;;;17.43;51.70;99562.59;4953711;29;20207;-74
2021/04/19 10:29:53;;;;;;;28.67;23.13;;;;;;;17.46;51.45;99563.19;4953849;29;20657;-74
2021/04/19 10:32:30;;;;;;;29.70;25.80;;;;;;;17.53;51.03;99565.41;4953920;28;20224;-75
2021/04/19 10:34:57;;;;;;;29.52;24.55;;;;;;;17.27;52.05;99563.91;4954066;28;20185;-75
2021/04/19 10:37:24;;;;;;;29.35;24.52;;;;;;;17.16;51.82;99558.53;4952941;29;20205;-73
2021/04/19 10:39:50;;;;;;;29.02;24.38;;;;;;;16.79;53.12;99560.81;4954015;28;20243;-74
2021/04/19 10:42:23;;;;;;;33.95;29.05;;;;;;;16.50;53.55;99557.81;4953637;28;20204;-74
2021/04/19 10:44:50;;;;;;;29.30;26.10;;;;;;;15.94;55.58;99562.38;4953919;29;20238;-74
2021/04/19 10:47:27;;;;;;;27.75;24.27;;;;;;;15.05;57.86;99553.09;4953739;29;20281;-74
2021/04/19 10:49:54;;;;;;;28.40;25.40;;;;;;;14.63;59.53;99568.97;4953591;28;20195;-74
2021/04/19 10:52:21;;;;;;;34.17;26.33;;;;;;;14.28;61.33;99558.88;4953877;29;20545;-75
2021/04/19 10:54:48;;;;;;;31.60;26.08;;;;;;;13.90;62.17;99558.97;4953970;29;20653;-74
2021/04/19 10:57:23;;;;;;;29.35;25.13;;;;;;;13.67;63.41;99557.91;4953799;29;20328;-74
2021/04/19 10:59:52;;;;;;;30.65;26.17;;;;;;;13.80;63.59;99552.50;4959050;28;20194;-74
2021/04/19 11:02:23;;;;;;;35.05;27.02;;;;;;;13.78;63.96;99547.19;4959155;28;20196;-75
2021/04/19 11:04:50;;;;;;;32.60;26.50;;;;;;;13.80;64.33;99555.22;4959478;29;20238;-73
2021/04/19 11:07:28;;;;;;;34.13;27.45;;;;;;;13.58;64.29;99548.63;4959771;28;20302;-73
2021/04/19 11:10:14;;;;;;;31.77;25.15;;;;;;;13.93;63.12;99542.53;4959944;29;20221;-75
2021/04/19 11:12:52;;;;;;;36.20;27.25;;;;;;;14.28;62.49;99547.16;4960274;28;20260;-74
2021/04/19 11:15:21;;;;;;;31.40;24.70;;;;;;;14.63;60.69;99544.56;4959729;29;20198;-74
2021/04/19 11:17:47;;;;;;;33.83;25.55;;;;;;;14.94;60.45;99536.78;4960066;29;20629;-75
2021/04/19 11:20:21;;;;;;;33.03;25.88;;;;;;;15.17;59.42;99537.69;4959588;28;20601;-74
2021/04/19 11:22:49;;;;;;;27.25;23.83;;;;;;;15.56;58.30;99536.41;4960371;28;20210;-73
2021/04/19 11:25:17;;;;;;;32.38;25.38;;;;;;;15.68;57.75;99534.56;4960268;29;20591;-74
2021/04/19 11:27:47;;;;;;;35.47;27.55;;;;;;;16.08;57.75;99534.09;4960280;28;20669;-74
2021/04/19 11:30:18;;;;;;;33.90;25.83;;;;;;;16.31;56.00;99534.91;4960056;28;20201;-73